Etusivu
METAR-TAF:

METAR-TAF

Lentoasemat :

Hallin lentoasema

Jämsä, Suomi

Leveyspiiri: 61-51N, Pituuspiiri: 024-48E, korkeus merenpinnasta: 143 m

Tämänhetkinen sää

Tämä raportti tehtiin 20 minuuttia sitten, kello 13.20 UTC
Tuuli 5 kn lännestä/luoteesta, vaihdellen etelän ja pohjoisen välillä
Lämpötila 19°C
Kosteus 26%
Ilmanpaine 1029 hPa
Näkyvyys 10 km tai enemmän
ei pilviä alle 1500 m:ssä eikä cumulonimbus-pilviä

METAR: EFHA 241320Z AUTO 29005KT 180V360 CAVOK 19/M01 Q1029

Aika: 16:40 (13:40 UTC)

Sääennuste

Tämä raportti tehtiin 2 tuntia ja 17 minuuttia sitten, kello 11.23 UTC
Ennuste voimassa 24. päivästä klo 12 UTC - 24. päivään klo 21 UTC
Tuuli 8 kn koillisesta
Näkyvyys 10 km tai enemmän
ei pilviä alle 1500 m:ssä eikä cumulonimbus-pilviä

TAF: EFHA 241123Z 2412/2421 04008KT CAVOK

Säähavainnot ja -ennusteet yli 4000 lentoasemalta (METAR- ja TAF-raportit).

Käytössä olevat sääasemat on merkitty karttaan keltaisilla ja punaisilla pisteillä.

Aseta hiiri pisteen päälle nähdäksesi sääaseman nimen.

Klikkaa sitten nähdäksesi säähavainnot ja -ennusteet.

Kartan vaihtaminen: klikkaa mustalla rastilla varustettuja vihreitä pisteitä, niin voit zoomata sisään; viivalla varustettua vihreää pistettä, niin voit zoomata ulos tai vihreitä nuolia, niin pääset viereisille kartoille.


METAR-TAF: